Time;durP1;ratioP1;P1;durP2;ratioP2;P2;SDS_P1;SDS_P2;PMS_P1;PMS_P2;Temp;Humidity;BMP_temperature;BMP_pressure;BME280_temperature;BME280_humidity;BME280_pressure;Samples;Min_cycle;Max_cycle;Signal;HPM_P1;HPM_P2
2023/01/31 00:01:22;;;;;;;19.17;3.60;;;;;;;2.85;100.00;99817.03;5095553;28;20483;-71
2023/01/31 00:03:52;;;;;;;15.43;3.70;;;;;;;2.76;100.00;99814.88;5094088;28;20055;-70
2023/01/31 00:06:20;;;;;;;14.88;2.88;;;;;;;2.78;100.00;99825.72;5094073;28;20024;-70
2023/01/31 00:08:47;;;;;;;9.80;2.67;;;;;;;2.81;100.00;99827.63;5094372;28;20012;-70
2023/01/31 00:11:13;;;;;;;13.95;3.30;;;;;;;2.88;100.00;99824.59;5093103;28;20034;-69
2023/01/31 00:13:39;;;;;;;9.00;3.40;;;;;;;2.85;100.00;99825.50;5094054;28;20165;-70
2023/01/31 00:16:06;;;;;;;10.68;2.88;;;;;;;2.91;100.00;99837.78;5094346;28;20020;-70
2023/01/31 00:18:32;;;;;;;15.90;3.03;;;;;;;2.86;100.00;99831.94;5094919;28;20032;-70
2023/01/31 00:20:58;;;;;;;17.60;3.95;;;;;;;2.88;100.00;99827.44;5096435;28;20464;-69
2023/01/31 00:23:23;;;;;;;18.20;4.05;;;;;;;2.93;100.00;99826.06;5096350;28;20069;-71
2023/01/31 00:25:48;;;;;;;12.70;2.53;;;;;;;2.86;100.00;99829.09;5094154;28;20495;-70
2023/01/31 00:28:14;;;;;;;9.18;2.38;;;;;;;2.84;100.00;99843.66;5093768;28;20016;-70
2023/01/31 00:30:39;;;;;;;11.35;2.30;;;;;;;2.90;100.00;99839.03;5093729;28;20035;-70
2023/01/31 00:33:05;;;;;;;11.05;2.60;;;;;;;2.87;100.00;99830.69;5093968;28;20023;-70
2023/01/31 00:35:30;;;;;;;12.95;2.92;;;;;;;2.84;100.00;99840.03;5093598;28;20027;-70
2023/01/31 00:37:55;;;;;;;10.63;3.15;;;;;;;2.79;100.00;99842.19;5093550;28;20040;-69
2023/01/31 00:40:21;;;;;;;17.65;3.35;;;;;;;2.75;100.00;99846.38;5095008;28;20032;-70
2023/01/31 00:42:46;;;;;;;15.07;5.03;;;;;;;2.71;100.00;99854.16;5095671;28;20051;-69
2023/01/31 00:45:12;;;;;;;6.93;2.00;;;;;;;2.64;100.00;99843.88;5095652;28;20027;-70
2023/01/31 00:47:37;;;;;;;14.88;2.25;;;;;;;2.60;100.00;99860.13;5095855;28;20401;-70
2023/01/31 00:50:03;;;;;;;10.82;2.60;;;;;;;2.51;100.00;99860.00;5095563;28;20436;-69
2023/01/31 00:52:28;;;;;;;17.17;4.50;;;;;;;2.51;100.00;99862.81;5096059;28;20091;-70
2023/01/31 00:54:53;;;;;;;15.93;3.03;;;;;;;2.62;100.00;99868.94;5095469;28;20027;-70
2023/01/31 00:57:19;;;;;;;11.77;2.40;;;;;;;2.60;100.00;99871.41;5095332;28;20050;-69
2023/01/31 00:59:44;;;;;;;11.98;3.58;;;;;;;2.64;100.00;99876.91;5095450;28;20153;-70
2023/01/31 01:02:10;;;;;;;15.50;3.00;;;;;;;2.67;100.00;99876.03;5095282;28;20459;-69
2023/01/31 01:04:35;;;;;;;7.65;2.38;;;;;;;2.63;100.00;99884.63;5095494;28;20020;-69
2023/01/31 01:07:00;;;;;;;14.65;2.53;;;;;;;2.68;100.00;99883.28;5095425;28;20421;-70
2023/01/31 01:09:26;;;;;;;9.70;2.13;;;;;;;2.69;100.00;99885.63;5095108;28;20113;-69
2023/01/31 01:11:51;;;;;;;10.50;2.30;;;;;;;2.72;100.00;99869.84;5094914;28;20034;-71
2023/01/31 01:14:17;;;;;;;7.60;2.97;;;;;;;2.67;100.00;99864.75;5095082;28;20031;-70
2023/01/31 01:16:42;;;;;;;11.65;2.63;;;;;;;2.65;100.00;99873.66;5095103;28;20056;-70
2023/01/31 01:19:11;;;;;;;16.02;2.90;;;;;;;2.60;100.00;99890.34;5094985;28;20059;-69
2023/01/31 01:21:39;;;;;;;12.48;3.30;;;;;;;2.66;100.00;99866.00;5095170;28;20034;-70
2023/01/31 01:24:07;;;;;;;12.00;2.00;;;;;;;2.72;100.00;99892.41;5094743;28;20016;-70
2023/01/31 01:26:33;;;;;;;9.13;2.15;;;;;;;2.68;100.00;99892.53;5094829;28;20032;-69
2023/01/31 01:29:00;;;;;;;15.68;3.25;;;;;;;2.80;100.00;99888.13;5094721;28;20486;-71
2023/01/31 01:31:29;;;;;;;9.77;2.55;;;;;;;2.82;100.00;99890.50;5094920;28;20093;-70
2023/01/31 01:33:59;;;;;;;6.55;1.98;;;;;;;2.89;100.00;99881.78;5094969;28;20111;-69
2023/01/31 01:36:25;;;;;;;13.68;2.05;;;;;;;2.84;100.00;99883.16;5094739;28;20093;-70
2023/01/31 01:38:52;;;;;;;12.50;1.90;;;;;;;2.81;100.00;99897.38;5094489;28;20443;-69
2023/01/31 01:41:17;;;;;;;15.43;3.97;;;;;;;2.65;100.00;99886.97;5094868;28;20020;-69
2023/01/31 01:43:53;;;;;;;9.15;2.17;;;;;;;2.59;100.00;99895.19;5094336;28;20360;-70
2023/01/31 01:46:29;;;;;;;10.52;2.35;;;;;;;2.69;100.00;99902.53;5094453;28;20032;-70
2023/01/31 01:49:02;;;;;;;10.35;2.40;;;;;;;2.63;100.00;99904.38;5094007;28;20479;-70
2023/01/31 01:51:31;;;;;;;13.25;2.42;;;;;;;2.56;100.00;99918.66;5075069;28;20046;-70
2023/01/31 01:54:00;;;;;;;10.68;2.22;;;;;;;2.54;100.00;99918.31;5092236;28;20055;-70
2023/01/31 01:56:32;;;;;;;15.27;2.22;;;;;;;2.56;100.00;99924.31;5074015;28;20115;-70
2023/01/31 01:59:32;;;;;;;10.15;2.42;;;;;;;2.54;100.00;99942.91;5074040;28;20035;-69
2023/01/31 02:01:58;;;;;;;21.25;2.60;;;;;;;2.63;100.00;99941.03;5077011;28;20036;-71
2023/01/31 02:04:29;;;;;;;11.93;2.13;;;;;;;2.67;100.00;99946.56;5091971;28;20027;-70
2023/01/31 02:06:55;;;;;;;12.00;2.22;;;;;;;2.75;100.00;99945.09;5092162;28;20017;-70
2023/01/31 02:09:53;;;;;;;16.55;2.60;;;;;;;2.68;100.00;99948.94;5092282;28;20106;-69
2023/01/31 02:12:18;;;;;;;9.63;2.20;;;;;;;2.70;100.00;99954.09;5091590;28;20063;-69
2023/01/31 02:14:46;;;;;;;19.05;3.67;;;;;;;2.64;100.00;99953.06;5075296;28;20093;-69
2023/01/31 02:17:13;;;;;;;9.57;2.17;;;;;;;2.70;100.00;99954.91;5074824;28;20020;-70
2023/01/31 02:20:09;;;;;;;7.82;1.92;;;;;;;2.66;100.00;99962.69;5093043;28;20477;-70
2023/01/31 02:23:03;;;;;;;10.05;2.70;;;;;;;2.63;100.00;99965.63;5094010;28;20081;-70
2023/01/31 02:26:05;;;;;;;20.42;2.40;;;;;;;2.58;100.00;99974.63;5093405;28;20024;-69
2023/01/31 02:28:54;;;;;;;;;;;;;;;2.62;100.00;99978.13;5094248;28;20469;-69
2023/01/31 02:31:22;;;;;;;3.60;1.58;;;;;;;2.68;100.00;99982.78;5055692;28;19939;-71
2023/01/31 02:33:53;;;;;;;12.23;2.50;;;;;;;2.66;100.00;99981.63;5093423;28;20035;-69
2023/01/31 02:36:31;;;;;;;8.30;2.60;;;;;;;2.70;100.00;99976.69;5093552;28;20053;-70
2023/01/31 02:39:24;;;;;;;10.68;2.40;;;;;;;2.65;100.00;99977.22;5072077;28;20093;-69
2023/01/31 02:42:01;;;;;;;11.23;1.70;;;;;;;2.59;100.00;99970.53;5073709;28;20032;-69
2023/01/31 02:45:00;;;;;;;13.90;2.13;;;;;;;2.45;100.00;99971.75;5073340;28;20025;-69
2023/01/31 02:47:32;;;;;;;5.88;1.75;;;;;;;2.40;100.00;99982.78;5031647;28;20389;-69
2023/01/31 02:50:29;;;;;;;8.18;1.67;;;;;;;2.29;100.00;99985.91;5073381;28;20373;-70
2023/01/31 02:53:05;;;;;;;8.68;2.53;;;;;;;2.24;100.00;100006.19;5073593;28;20078;-69
2023/01/31 02:58:31;;;;;;;12.02;2.10;;;;;;;2.12;100.00;100049.16;5073268;28;20388;-70
2023/01/31 03:00:57;;;;;;;5.60;2.20;;;;;;;2.13;100.00;100028.19;5073108;28;20016;-70
2023/01/31 03:03:27;;;;;;;10.77;2.70;;;;;;;2.21;100.00;100041.66;5073577;28;20024;-70
2023/01/31 03:06:08;;;;;;;14.40;2.17;;;;;;;2.28;100.00;100043.50;5073177;28;20056;-68
2023/01/31 03:08:34;;;;;;;15.10;3.63;;;;;;;2.26;100.00;100048.78;5073157;28;20029;-69
2023/01/31 03:11:02;;;;;;;5.70;2.10;;;;;;;2.32;100.00;100052.66;5072308;28;20017;-70
2023/01/31 03:14:15;;;;;;;10.55;2.17;;;;;;;2.38;100.00;100056.53;5072548;28;20024;-69
2023/01/31 03:20:11;;;;;;;11.38;3.03;;;;;;;2.24;100.00;100068.19;4978016;28;20041;-70
2023/01/31 03:22:38;;;;;;;;;;;;;;;2.32;100.00;100078.03;5069204;28;20035;-69
2023/01/31 03:25:04;;;;;;;7.03;1.58;;;;;;;2.30;100.00;100066.41;5071958;28;19908;-70
2023/01/31 03:27:30;;;;;;;12.23;2.85;;;;;;;2.27;100.00;100079.38;5071903;28;20021;-69
2023/01/31 03:30:00;;;;;;;10.23;2.22;;;;;;;2.31;100.00;100076.44;5072930;28;20477;-70
2023/01/31 03:32:38;;;;;;;13.65;2.60;;;;;;;2.36;100.00;100070.28;5072969;28;20590;-70
2023/01/31 03:35:04;;;;;;;8.40;2.28;;;;;;;2.31;100.00;100073.63;5071911;28;20024;-70
2023/01/31 03:37:32;;;;;;;5.40;1.80;;;;;;;2.29;100.00;100067.66;5072694;28;20491;-68
2023/01/31 03:40:25;;;;;;;7.53;2.45;;;;;;;2.31;100.00;100082.88;5075279;28;20177;-71
2023/01/31 03:42:56;;;;;;;8.57;1.77;;;;;;;2.30;100.00;100095.38;5093315;28;20081;-70
2023/01/31 03:45:32;;;;;;;12.02;2.00;;;;;;;2.26;100.00;100096.72;5093031;28;20035;-70
2023/01/31 03:47:59;;;;;;;5.63;1.65;;;;;;;2.18;100.00;100084.03;5078985;28;20020;-70
2023/01/31 03:50:26;;;;;;;11.63;3.25;;;;;;;2.26;100.00;100099.53;5097042;28;20024;-70
2023/01/31 03:52:57;;;;;;;14.70;1.80;;;;;;;2.28;100.00;100100.69;5078548;28;20107;-71
2023/01/31 03:55:36;;;;;;;6.75;2.03;;;;;;;2.28;100.00;100100.69;5078815;28;20035;-69
2023/01/31 03:58:03;;;;;;;9.35;2.58;;;;;;;2.18;100.00;100098.13;5078622;28;20023;-69
2023/01/31 04:00:29;;;;;;;9.82;1.80;;;;;;;2.20;100.00;100095.66;5096518;28;20514;-69
2023/01/31 04:03:06;;;;;;;7.82;2.15;;;;;;;2.25;100.00;100101.56;5078450;28;20016;-69
2023/01/31 04:05:32;;;;;;;21.92;2.10;;;;;;;2.26;100.00;100091.06;5078112;28;20346;-69
2023/01/31 04:08:00;;;;;;;16.13;2.17;;;;;;;2.22;100.00;100099.63;5096419;28;20023;-69
2023/01/31 04:10:26;;;;;;;17.30;2.55;;;;;;;2.33;100.00;100099.34;5078350;28;20020;-69
2023/01/31 04:12:52;;;;;;;8.68;3.28;;;;;;;2.25;100.00;100121.28;5078283;28;20136;-69
2023/01/31 04:15:17;;;;;;;7.22;1.65;;;;;;;2.22;100.00;100125.00;5096495;28;20024;-69
2023/01/31 04:17:43;;;;;;;6.82;1.58;;;;;;;2.31;100.00;100130.00;5096192;28;20047;-69
2023/01/31 04:20:09;;;;;;;12.45;2.35;;;;;;;2.33;100.00;100130.38;5096100;28;20066;-69
2023/01/31 04:22:34;;;;;;;6.90;2.15;;;;;;;2.32;100.00;100137.25;5096175;28;20016;-70
2023/01/31 04:25:00;;;;;;;7.28;2.00;;;;;;;2.38;100.00;100143.94;5096228;28;20024;-69
2023/01/31 04:27:27;;;;;;;7.95;2.22;;;;;;;2.29;100.00;100135.31;5096519;28;20087;-70
2023/01/31 04:29:52;;;;;;;11.30;2.50;;;;;;;2.21;100.00;100154.41;5096288;28;20039;-70
2023/01/31 04:32:17;;;;;;;12.52;2.58;;;;;;;2.25;100.00;100143.84;5096038;28;20384;-70
2023/01/31 04:34:43;;;;;;;16.05;3.60;;;;;;;2.25;100.00;100151.50;5095820;28;20115;-70
2023/01/31 04:37:08;;;;;;;10.55;1.95;;;;;;;2.27;100.00;100158.28;5096031;28;20024;-69
2023/01/31 04:39:33;;;;;;;14.57;2.58;;;;;;;2.23;100.00;100162.44;5095638;28;20189;-70
2023/01/31 04:41:59;;;;;;;9.38;2.10;;;;;;;2.24;100.00;100156.34;5095935;28;20028;-70
2023/01/31 04:44:25;;;;;;;13.73;2.20;;;;;;;2.15;100.00;100161.78;5095693;28;20109;-70
2023/01/31 04:46:52;;;;;;;11.18;2.28;;;;;;;2.14;100.00;100174.31;5091296;28;20040;-69
2023/01/31 04:49:18;;;;;;;11.95;1.90;;;;;;;2.17;100.00;100175.47;5092807;28;20184;-71
2023/01/31 04:51:46;;;;;;;9.93;3.17;;;;;;;2.14;100.00;100179.16;5095611;28;20027;-71
2023/01/31 04:54:12;;;;;;;7.88;2.17;;;;;;;2.14;100.00;100190.44;5095866;28;20031;-70
2023/01/31 04:56:39;;;;;;;9.95;1.92;;;;;;;2.17;100.00;100190.34;5095797;28;20062;-70
2023/01/31 04:59:05;;;;;;;10.00;2.65;;;;;;;2.12;100.00;100185.22;5093783;28;20047;-70
2023/01/31 05:01:30;;;;;;;11.98;2.63;;;;;;;2.06;100.00;100180.53;5095432;28;20031;-70
2023/01/31 05:03:58;;;;;;;9.43;2.03;;;;;;;1.99;100.00;100189.97;5094662;28;20036;-70
2023/01/31 05:06:26;;;;;;;9.98;2.58;;;;;;;1.99;100.00;100187.16;5095920;28;20024;-70
2023/01/31 05:08:53;;;;;;;9.27;1.75;;;;;;;1.97;100.00;100181.16;5095579;28;20095;-69
2023/01/31 05:11:20;;;;;;;8.93;1.50;;;;;;;1.92;100.00;100190.13;5094096;28;20086;-69
2023/01/31 05:13:46;;;;;;;13.07;2.75;;;;;;;1.91;100.00;100183.69;5077246;28;20032;-71
2023/01/31 05:16:12;;;;;;;11.93;3.72;;;;;;;1.86;100.00;100189.03;5095361;28;20031;-70
2023/01/31 05:18:39;;;;;;;12.75;3.70;;;;;;;1.87;100.00;100194.25;5076979;28;20389;-70
2023/01/31 05:21:06;;;;;;;6.53;2.83;;;;;;;1.77;100.00;100186.03;5094741;28;20388;-70
2023/01/31 05:23:46;;;;;;;16.20;3.08;;;;;;;1.68;100.00;100191.47;5077132;28;20119;-70
2023/01/31 05:26:12;;;;;;;11.02;2.53;;;;;;;1.60;100.00;100198.47;5095105;28;20031;-70
2023/01/31 05:28:42;;;;;;;10.88;3.92;;;;;;;1.67;100.00;100201.13;5093134;28;20047;-70
2023/01/31 05:31:09;;;;;;;12.68;3.17;;;;;;;1.65;100.00;100209.22;5095160;28;20028;-69
2023/01/31 05:33:35;;;;;;;12.60;2.22;;;;;;;1.65;100.00;100210.00;5076860;28;20388;-71
2023/01/31 05:36:02;;;;;;;6.90;2.40;;;;;;;1.65;100.00;100221.25;5076714;28;20460;-71
2023/01/31 05:38:27;;;;;;;8.18;2.63;;;;;;;1.68;100.00;100226.03;5073029;28;20409;-72
2023/01/31 05:40:56;;;;;;;10.82;2.75;;;;;;;1.65;100.00;100226.13;5074655;28;20024;-73
2023/01/31 05:43:22;;;;;;;8.68;1.90;;;;;;;1.70;100.00;100226.38;5073860;28;20055;-72
2023/01/31 05:45:50;;;;;;;10.35;2.42;;;;;;;1.69;100.00;100236.09;5070289;28;20036;-72
2023/01/31 05:48:17;;;;;;;13.95;2.75;;;;;;;1.77;100.00;100233.91;5074521;28;20031;-71
2023/01/31 05:50:44;;;;;;;13.18;2.30;;;;;;;1.73;100.00;100228.34;5074595;28;20028;-71
2023/01/31 05:53:10;;;;;;;9.05;2.45;;;;;;;1.70;100.00;100242.53;5072796;28;20105;-73
2023/01/31 05:55:36;;;;;;;18.33;3.00;;;;;;;1.68;100.00;100259.03;5073005;28;20104;-72
2023/01/31 05:58:01;;;;;;;8.50;2.30;;;;;;;1.70;100.00;100260.19;5073851;28;20161;-73
2023/01/31 06:00:28;;;;;;;9.68;2.15;;;;;;;1.65;100.00;100263.50;5072989;28;20032;-70
2023/01/31 06:02:58;;;;;;;11.48;2.10;;;;;;;1.68;100.00;100268.28;5072886;28;20040;-70
2023/01/31 06:05:25;;;;;;;11.75;2.38;;;;;;;1.61;100.00;100271.22;5073907;28;20096;-72
2023/01/31 06:08:09;;;;;;;10.02;1.83;;;;;;;1.73;100.00;100272.63;5073718;28;20039;-73
2023/01/31 06:10:35;;;;;;;17.65;2.10;;;;;;;1.74;100.00;100285.47;5054722;28;20485;-71
2023/01/31 06:13:02;;;;;;;12.02;2.50;;;;;;;1.73;100.00;100287.50;5053131;28;20037;-76
2023/01/31 06:15:27;;;;;;;11.50;2.38;;;;;;;1.71;100.00;100292.75;5053868;28;20405;-74
2023/01/31 06:17:52;;;;;;;14.40;1.92;;;;;;;1.78;100.00;100294.66;5053973;28;20029;-73
2023/01/31 06:20:20;;;;;;;14.70;2.28;;;;;;;1.75;100.00;100296.28;5053863;28;20021;-73
2023/01/31 06:22:48;;;;;;;7.55;1.70;;;;;;;1.75;100.00;100301.94;5053614;28;20397;-74
2023/01/31 06:25:14;;;;;;;9.43;2.38;;;;;;;1.75;100.00;100299.13;5052008;28;20044;-73
2023/01/31 06:27:41;;;;;;;10.27;2.15;;;;;;;1.79;100.00;100308.31;5053648;28;20029;-78
2023/01/31 06:30:08;;;;;;;6.88;1.90;;;;;;;1.81;100.00;100316.31;5053803;28;20025;-74
2023/01/31 06:32:34;;;;;;;10.13;3.40;;;;;;;1.87;100.00;100306.13;5053683;28;20083;-76
2023/01/31 06:35:02;;;;;;;10.25;2.28;;;;;;;1.83;100.00;100316.69;5053723;28;20033;-76
2023/01/31 06:37:28;;;;;;;10.40;1.73;;;;;;;1.83;100.00;100311.03;5052252;28;20045;-76
2023/01/31 06:39:54;;;;;;;11.30;2.22;;;;;;;1.91;100.00;100313.28;5052762;28;20053;-75
2023/01/31 06:42:19;;;;;;;9.73;1.83;;;;;;;1.91;100.00;100296.38;5035533;28;20032;-76
2023/01/31 06:44:45;;;;;;;12.18;3.33;;;;;;;1.89;100.00;100298.84;5051473;28;20086;-75
2023/01/31 06:47:11;;;;;;;7.05;2.25;;;;;;;1.88;100.00;100319.00;5051364;28;20025;-75
2023/01/31 06:49:37;;;;;;;8.82;1.92;;;;;;;1.90;100.00;100314.50;5051059;28;20408;-78
2023/01/31 06:52:03;;;;;;;21.08;3.33;;;;;;;1.90;100.00;100311.69;5050900;28;20127;-76
2023/01/31 06:54:28;;;;;;;11.82;2.75;;;;;;;1.97;100.00;100315.59;5050896;28;20079;-76
2023/01/31 06:56:53;;;;;;;9.98;2.50;;;;;;;2.01;100.00;100324.75;5051244;28;20067;-75
2023/01/31 06:59:19;;;;;;;12.70;2.65;;;;;;;2.05;100.00;100328.28;5049732;28;20033;-76
2023/01/31 07:01:44;;;;;;;11.95;2.58;;;;;;;2.00;100.00;100329.59;5051654;28;20096;-76
2023/01/31 07:04:09;;;;;;;13.48;3.15;;;;;;;1.92;100.00;100328.97;5051357;28;20492;-77
2023/01/31 07:06:35;;;;;;;10.80;2.45;;;;;;;1.96;100.00;100333.72;5050049;28;20025;-76
2023/01/31 07:09:00;;;;;;;9.48;3.00;;;;;;;1.92;100.00;100333.81;5051678;28;20029;-78
2023/01/31 07:11:25;;;;;;;9.32;2.47;;;;;;;1.92;100.00;100336.63;5053074;28;20024;-78
2023/01/31 07:13:52;;;;;;;15.30;2.35;;;;;;;1.97;100.00;100340.94;5053313;28;20135;-77
2023/01/31 07:16:18;;;;;;;8.23;2.25;;;;;;;1.97;100.00;100343.78;5053346;28;20036;-77
2023/01/31 07:18:44;;;;;;;18.08;3.95;;;;;;;1.90;100.00;100348.31;5052823;28;20061;-77
2023/01/31 07:21:09;;;;;;;10.63;3.00;;;;;;;1.92;100.00;100348.69;5054331;28;20110;-76
2023/01/31 07:23:35;;;;;;;13.48;3.03;;;;;;;1.91;100.00;100352.72;5057222;28;20405;-78
2023/01/31 07:26:05;;;;;;;8.15;2.28;;;;;;;2.05;100.00;100364.94;5056986;28;20052;-78
2023/01/31 07:28:30;;;;;;;10.02;3.03;;;;;;;2.04;100.00;100361.34;5057035;28;20120;-78
2023/01/31 07:31:02;;;;;;;8.13;2.50;;;;;;;2.06;100.00;100370.13;5057091;28;20462;-77
2023/01/31 07:33:29;;;;;;;12.95;3.28;;;;;;;2.06;100.00;100375.78;5056445;28;20035;-78
2023/01/31 07:35:54;;;;;;;15.00;2.55;;;;;;;2.19;100.00;100385.16;5055729;28;20108;-75
2023/01/31 07:38:20;;;;;;;12.27;2.70;;;;;;;2.19;100.00;100392.84;5062969;28;20549;-77
2023/01/31 07:40:46;;;;;;;9.27;3.03;;;;;;;2.18;100.00;100391.25;5088760;28;20438;-75
2023/01/31 07:43:12;;;;;;;15.65;3.05;;;;;;;2.22;100.00;100394.78;5096649;28;20036;-76
2023/01/31 07:45:41;;;;;;;18.10;2.72;;;;;;;2.21;100.00;100394.00;5093952;28;20063;-78
2023/01/31 07:48:12;;;;;;;12.57;3.65;;;;;;;2.33;100.00;100406.66;5097212;28;20095;-76
2023/01/31 07:50:38;;;;;;;6.50;2.70;;;;;;;2.33;100.00;100409.47;5103860;28;20031;-78
2023/01/31 07:53:04;;;;;;;8.07;2.33;;;;;;;2.34;100.00;100403.38;5070656;28;20085;-80
2023/01/31 07:55:29;;;;;;;10.48;2.85;;;;;;;2.50;100.00;100399.84;5099578;28;20046;-80
2023/01/31 07:57:55;;;;;;;11.90;2.75;;;;;;;2.55;100.00;100410.59;5103230;28;20460;-79
2023/01/31 08:05:49;;;;;;;16.25;3.22;;;;;;;2.71;100.00;100415.50;5101978;28;20496;-79
2023/01/31 08:08:15;;;;;;;8.02;1.85;;;;;;;2.78;100.00;100418.19;5096458;28;20032;-79
2023/01/31 08:10:42;;;;;;;11.88;2.25;;;;;;;2.92;100.00;100417.88;5061956;28;20115;-79
2023/01/31 08:13:10;;;;;;;17.38;2.63;;;;;;;3.21;100.00;100413.16;5061723;28;20119;-81
2023/01/31 08:15:38;;;;;;;11.38;3.10;;;;;;;3.50;100.00;100415.25;5063159;28;20034;-76
2023/01/31 08:18:05;;;;;;;10.50;3.08;;;;;;;3.63;100.00;100411.28;5098043;28;20459;-78
2023/01/31 08:20:30;;;;;;;10.57;2.08;;;;;;;3.62;100.00;100415.31;5079762;28;20054;-80
2023/01/31 08:22:59;;;;;;;17.85;2.65;;;;;;;3.48;100.00;100420.53;5097290;28;20479;-76
2023/01/31 08:25:33;;;;;;;15.50;3.75;;;;;;;3.21;100.00;100418.78;5096830;28;20077;-75
2023/01/31 08:27:59;;;;;;;8.52;2.38;;;;;;;3.18;100.00;100428.13;5096821;28;20031;-78
2023/01/31 08:30:33;;;;;;;23.25;3.70;;;;;;;3.15;100.00;100422.56;5078624;28;20028;-78
2023/01/31 08:32:59;;;;;;;13.30;2.60;;;;;;;3.29;100.00;100418.59;5095583;28;20031;-79
2023/01/31 08:35:25;;;;;;;7.80;2.95;;;;;;;3.41;100.00;100421.53;5061496;28;20028;-78
2023/01/31 08:37:52;;;;;;;14.68;2.60;;;;;;;3.67;100.00;100418.88;5095938;28;20106;-78
2023/01/31 08:40:18;;;;;;;12.45;3.42;;;;;;;3.77;100.00;100423.47;5077939;28;20071;-78
2023/01/31 08:42:59;;;;;;;17.00;3.40;;;;;;;3.68;100.00;100424.06;5077892;28;20028;-77
2023/01/31 08:45:34;;;;;;;17.80;3.13;;;;;;;3.74;100.00;100424.34;5095846;28;20024;-77
2023/01/31 08:48:00;;;;;;;12.38;2.17;;;;;;;3.74;100.00;100419.47;5077811;28;20270;-78
2023/01/31 08:50:30;;;;;;;10.38;2.67;;;;;;;3.79;100.00;100406.84;5076154;28;20055;-77
2023/01/31 08:52:59;;;;;;;8.50;2.40;;;;;;;3.83;100.00;100424.50;5078099;28;20098;-78
2023/01/31 08:55:26;;;;;;;9.25;2.08;;;;;;;3.94;100.00;100427.88;5077951;28;20181;-77
2023/01/31 08:57:52;;;;;;;9.57;2.97;;;;;;;4.04;100.00;100418.31;5077573;28;20115;-78
2023/01/31 09:00:18;;;;;;;12.10;2.65;;;;;;;4.37;100.00;100431.13;5077937;28;20059;-76
2023/01/31 09:02:45;;;;;;;11.88;2.80;;;;;;;4.56;100.00;100432.22;5095948;28;20027;-78
2023/01/31 09:05:21;;;;;;;11.93;2.85;;;;;;;4.71;100.00;100435.41;5077571;28;20062;-78
2023/01/31 09:07:48;;;;;;;7.50;3.03;;;;;;;4.75;100.00;100439.72;5077309;28;20028;-78
2023/01/31 09:10:13;;;;;;;9.48;2.30;;;;;;;4.68;100.00;100441.97;5095369;28;20488;-77
2023/01/31 09:12:40;;;;;;;10.50;2.30;;;;;;;4.55;100.00;100438.31;5077390;28;20062;-77
2023/01/31 09:15:06;;;;;;;11.93;3.00;;;;;;;4.39;100.00;100436.31;5095107;28;20379;-76
2023/01/31 09:17:33;;;;;;;26.73;2.50;;;;;;;4.30;100.00;100428.50;5095174;28;20380;-78
2023/01/31 09:20:05;;;;;;;9.63;2.70;;;;;;;4.16;100.00;100460.00;5095220;28;20050;-78
2023/01/31 09:22:45;;;;;;;10.70;1.77;;;;;;;4.05;100.00;100453.84;5095479;28;20081;-78
2023/01/31 09:25:12;;;;;;;6.40;2.13;;;;;;;4.03;100.00;100471.22;5095535;28;20032;-79
2023/01/31 09:27:40;;;;;;;9.18;2.05;;;;;;;4.24;100.00;100460.59;5095403;28;20405;-77
2023/01/31 09:30:08;;;;;;;14.23;2.88;;;;;;;4.47;100.00;100458.31;5060230;28;20108;-77
2023/01/31 09:32:34;;;;;;;9.20;2.28;;;;;;;4.61;100.00;100456.34;5076812;28;20388;-78
2023/01/31 09:35:01;;;;;;;8.07;2.03;;;;;;;4.88;100.00;100460.34;5077331;28;20198;-78
2023/01/31 09:37:31;;;;;;;10.93;3.08;;;;;;;4.90;100.00;100462.75;5060132;28;20452;-79
2023/01/31 09:39:57;;;;;;;11.20;2.85;;;;;;;5.09;100.00;100455.28;5094879;28;20048;-78
2023/01/31 09:42:30;;;;;;;10.88;2.40;;;;;;;5.01;100.00;100460.38;5094226;28;20051;-79
2023/01/31 09:45:01;;;;;;;10.15;2.35;;;;;;;5.04;100.00;100441.69;5076375;28;20380;-78
2023/01/31 09:47:39;;;;;;;13.27;4.13;;;;;;;5.18;100.00;100449.75;5076761;28;20035;-79
2023/01/31 09:50:11;;;;;;;8.98;2.50;;;;;;;5.57;100.00;100448.47;5076744;28;20028;-78
2023/01/31 09:52:37;;;;;;;13.02;3.22;;;;;;;5.77;100.00;100466.03;5085005;28;20107;-78
2023/01/31 09:55:38;;;;;;;9.75;1.98;;;;;;;5.51;100.00;100458.78;5066935;28;20439;-77
2023/01/31 09:58:42;;;;;;;10.82;3.00;;;;;;;5.26;100.00;100462.44;5058305;28;20044;-78
2023/01/31 10:01:15;;;;;;;8.23;1.92;;;;;;;4.97;100.00;100456.06;5075131;28;20069;-77
2023/01/31 10:04:03;;;;;;;11.73;2.20;;;;;;;4.85;100.00;100447.09;5074631;28;20134;-77
2023/01/31 10:06:44;;;;;;;10.60;2.50;;;;;;;4.85;100.00;100440.66;5074213;28;20422;-78
2023/01/31 10:09:26;;;;;;;8.57;2.00;;;;;;;4.92;100.00;100435.56;5073963;28;20519;-79
2023/01/31 10:11:59;;;;;;;17.08;3.33;;;;;;;4.93;100.00;100436.34;5056195;28;20024;-78
2023/01/31 10:14:52;;;;;;;8.38;2.47;;;;;;;4.76;100.00;100429.97;5056888;28;20028;-80
2023/01/31 10:17:26;;;;;;;5.43;1.73;;;;;;;4.79;100.00;100433.94;5073727;28;20492;-78
2023/01/31 10:19:58;;;;;;;7.88;1.98;;;;;;;5.04;100.00;100431.16;5055735;28;20020;-78
2023/01/31 10:22:41;;;;;;;;;;;;;;;5.17;100.00;100422.66;5074951;28;20376;-78
2023/01/31 10:25:40;;;;;;;8.20;2.00;;;;;;;5.25;100.00;100444.63;5073882;28;19908;-78
2023/01/31 10:28:14;;;;;;;9.77;2.15;;;;;;;5.10;100.00;100428.56;5055512;28;20074;-79
2023/01/31 10:30:57;;;;;;;6.00;1.85;;;;;;;5.01;100.00;100425.59;5055945;28;20035;-79
2023/01/31 10:33:39;;;;;;;16.05;2.95;;;;;;;4.96;100.00;100414.84;5073912;28;20037;-78
2023/01/31 10:36:16;;;;;;;8.48;2.40;;;;;;;4.96;100.00;100423.34;5073977;28;20444;-78
2023/01/31 10:39:14;;;;;;;12.43;2.78;;;;;;;4.88;100.00;100425.59;5056780;28;20123;-78
2023/01/31 10:42:01;;;;;;;7.28;2.33;;;;;;;5.11;100.00;100415.97;5042178;28;20036;-79
2023/01/31 10:44:41;;;;;;;20.45;4.00;;;;;;;5.13;100.00;100410.66;5073715;28;20024;-78
2023/01/31 10:47:14;;;;;;;8.38;2.80;;;;;;;5.14;100.00;100420.75;5073428;28;20503;-78
2023/01/31 10:49:44;;;;;;;11.23;3.05;;;;;;;5.03;100.00;100400.44;5055621;28;20043;-78
2023/01/31 10:52:43;;;;;;;19.00;4.25;;;;;;;4.99;100.00;100406.22;5055883;28;20166;-79
2023/01/31 10:55:28;;;;;;;14.80;2.40;;;;;;;5.18;100.00;100408.03;5056939;28;20044;-79
2023/01/31 10:57:54;;;;;;;16.40;2.83;;;;;;;5.17;100.00;100394.34;5079874;28;20111;-78
2023/01/31 11:00:23;;;;;;;10.93;2.67;;;;;;;5.13;100.00;100416.31;5079890;28;20048;-78
2023/01/31 11:02:48;;;;;;;6.72;2.22;;;;;;;5.02;100.00;100402.50;5062834;28;20043;-78
2023/01/31 11:05:18;;;;;;;12.38;2.00;;;;;;;5.09;100.00;100404.31;5079939;28;20024;-78
2023/01/31 11:07:44;;;;;;;11.50;3.03;;;;;;;5.30;100.00;100397.97;5046075;28;20043;-77
2023/01/31 11:10:27;;;;;;;15.55;2.85;;;;;;;5.48;100.00;100381.16;5045632;28;20398;-77
2023/01/31 11:13:04;;;;;;;12.90;3.08;;;;;;;5.58;100.00;100397.03;5062425;28;20025;-77
2023/01/31 11:15:46;;;;;;;9.20;2.40;;;;;;;5.74;100.00;100388.38;5079901;28;20024;-79
2023/01/31 11:18:36;;;;;;;12.55;3.38;;;;;;;5.68;100.00;100400.75;5080841;28;20048;-79
2023/01/31 11:21:03;;;;;;;13.10;2.97;;;;;;;5.50;100.00;100390.00;5076818;28;20036;-78
2023/01/31 11:23:44;;;;;;;15.30;2.90;;;;;;;5.35;100.00;100392.50;5045395;28;20044;-77
2023/01/31 11:26:26;;;;;;;16.05;4.55;;;;;;;5.20;100.00;100377.22;5079918;28;20032;-78
2023/01/31 11:29:01;;;;;;;13.68;3.17;;;;;;;5.25;100.00;100373.03;5062028;28;20056;-78
2023/01/31 11:31:37;;;;;;;8.18;3.38;;;;;;;5.08;100.00;100374.41;5061928;28;20028;-78
2023/01/31 11:34:09;;;;;;;13.45;3.08;;;;;;;5.03;100.00;100355.16;5062777;28;20028;-77
2023/01/31 11:36:44;;;;;;;7.55;2.45;;;;;;;5.08;100.00;100352.53;5045867;28;20089;-78
2023/01/31 11:39:31;;;;;;;9.88;2.95;;;;;;;5.26;100.00;100355.56;5079586;28;20559;-77
2023/01/31 11:42:13;;;;;;;13.77;2.13;;;;;;;5.16;100.00;100347.41;5079899;28;20024;-76
2023/01/31 11:44:58;;;;;;;;;;;;;;;5.03;100.00;100346.66;5063917;28;20037;-76
2023/01/31 11:47:32;;;;;;;6.95;2.65;;;;;;;4.73;100.00;100350.84;5090510;28;19919;-76
2023/01/31 11:49:59;;;;;;;8.13;1.80;;;;;;;4.58;100.00;100338.38;5065256;28;20027;-78
2023/01/31 11:52:31;;;;;;;5.60;2.08;;;;;;;4.46;100.00;100346.38;5081809;28;20027;-78